Sloman Herakles — V2FY4 — position and weather

sailwx.info

Track history (hours):
 
Tides and Currents Weather Stations Pressure Air Temp Water Temp Dewpoint Dewpoint Depression Visibility Wind Speed Wind Dir Waves Ship Positions

Sloman Herakles

Last reported at 2014-Nov-07 18:33 UTC. Time now 2014-Nov-21 11:49 UTC.
Position N 29°25' W 094°49'.
Warning: this ship's position is 13 days out of date.

Length 145 m; draft 9.2 m.

Type: Ship (hazmat cat C). MMSI: 305851000.

Date/timePositionNaut miles runAvg speedWind from/ knotsBaromVisibWave heightAir tempDewpointWater temp
2014-Nov-07 18:33N 29°25' W 094°49'1111.4
2014-Nov-07 17:33N 29°35' W 094°56'9 9.4
2014-Nov-07 16:33N 29°43' W 095°01'5 4.6
2014-Nov-07 15:33N 29°45' W 095°06'0 0.0
2014-Nov-06 03:04N 29°45' W 095°06'3 6.1
2014-Nov-06 02:33N 29°44' W 095°03'9 9.0
2014-Nov-06 01:33N 29°36' W 094°57'1412.6
2014-Nov-06 00:25N 29°24' W 094°49'4 0.7
2014-Nov-05 19:04N 29°21' W 094°46'  
Track history (hours):
 
Tides and Currents Weather Stations Pressure Air Temp Water Temp Dewpoint Dewpoint Depression Visibility Wind Speed Wind Dir Waves Ship Positions

Sloman Herakles

Last reported at 2014-Nov-07 18:33 UTC. Time now 2014-Nov-21 11:49 UTC.
Position N 29°25' W 094°49'.
Warning: this ship's position is 13 days out of date.

Length 145 m; draft 9.2 m.

Type: Ship (hazmat cat C). MMSI: 305851000.

Date/timePositionNaut miles runAvg speedWind from/ knotsBaromVisibWave heightAir tempDewpointWater temp
2014-Nov-07 18:33N 29°25' W 094°49'1111.4
2014-Nov-07 17:33N 29°35' W 094°56'9 9.4
2014-Nov-07 16:33N 29°43' W 095°01'5 4.6
2014-Nov-07 15:33N 29°45' W 095°06'0 0.0
2014-Nov-06 03:04N 29°45' W 095°06'3 6.1
2014-Nov-06 02:33N 29°44' W 095°03'9 9.0
2014-Nov-06 01:33N 29°36' W 094°57'1412.6
2014-Nov-06 00:25N 29°24' W 094°49'4 0.7
2014-Nov-05 19:04N 29°21' W 094°46'  

Dump ship's entire track history